Fruitland
, Fruitland
Last Weather Update:4/16/2012 10:00:00 AM
Date
ETo
ETc
Rain
Irrigation
Req
Temp
Max
Temp
Min
Temp
Avg
Avg RH
Avg Wind
Avg Solar
inches
inches
incehs
inches
F
F
F
%
%
watts/m2
3/1/2012 0.06" 0.00" 0.00" 0.00" 29.8° 14.4° 22.5° 67.4% 7.0 MPH 202.0w/m2
3/2/2012 0.07" 0.00" 0.00" 0.00" 28.6° 15.3° 20.8° 54.7% 11.7 MPH 199.0w/m2
3/3/2012 0.07" 0.00" 0.00" 0.00" 37.0° 15.6° 26.0° 61.7% 14.8 MPH 181.6w/m2
3/4/2012 0.11" 0.00" 0.00" 0.00" 51.5° 21.2° 35.7° 56.3% 8.2 MPH 221.9w/m2
3/5/2012 0.11" 0.00" 0.00" 0.00" 57.5° 16.4° 36.1° 54.0% 2.1 MPH 219.5w/m2
3/6/2012 0.07" 0.00" 0.00" 0.00" 52.4° 17.3° 35.4° 55.7% 2.3 MPH 144.3w/m2
3/7/2012 0.07" 0.00" 0.00" 0.00" 45.3° 22.8° 31.0° 64.3% 3.1 MPH 172.5w/m2
3/8/2012 0.10" 0.00" 0.00" 0.00" 53.3° 15.6° 31.5° 46.1% 1.7 MPH 232.8w/m2
3/9/2012 0.10" 0.00" 0.00" 0.00" 58.3° 16.1° 34.6° 49.3% 0.0 MPH 233.5w/m2
3/10/2012 0.13" 0.00" 0.00" 0.00" 59.5° 16.5° 37.8° 45.6% 2.9 MPH 237.0w/m2
3/11/2012 0.14" 0.00" 0.00" 0.00" 56.7° 26.5° 40.0° 41.2% 5.4 MPH 227.7w/m2
3/12/2012 0.13" 0.00" 0.00" 0.00" 58.9° 21.8° 40.9° 43.7% 3.2 MPH 231.0w/m2
3/13/2012 0.14" 0.00" 0.00" 0.00" 60.1° 20.3° 40.7° 44.4% 5.2 MPH 221.7w/m2
3/14/2012 0.14" 0.00" 0.00" 0.00" 59.4° 24.6° 44.0° 40.2% 4.3 MPH 227.5w/m2
3/15/2012 0.11" 0.00" 0.00" 0.00" 61.8° 29.7° 45.8° 49.6% 1.4 MPH 179.7w/m2
3/16/2012 0.13" 0.00" 0.00" 0.00" 63.4° 25.3° 43.7° 53.5% 3.2 MPH 188.3w/m2
3/17/2012 0.12" 0.00" 0.00" 0.00" 56.1° 31.8° 44.8° 47.9% 7.8 MPH 154.7w/m2
3/18/2012 0.03" 0.00" 0.26" -0.21" 45.3° 7.6° 29.0° 84.1% 5.6 MPH 81.1w/m2
3/19/2012 0.08" 0.00" 0.02" -0.02" 34.0° 15.6° 24.3° 66.6% 6.2 MPH 255.2w/m2
3/20/2012 0.10" 0.00" 0.00" 0.00" 39.6° 12.3° 27.2° 61.1% 9.0 MPH 258.7w/m2
3/21/2012 0.14" 0.00" 0.00" 0.00" 56.8° 30.0° 41.6° 51.7% 3.6 MPH 256.6w/m2
3/22/2012 0.14" 0.00" 0.00" 0.00" 64.9° 20.7° 42.1° 51.0% 0.9 MPH 263.9w/m2
3/23/2012 0.13" 0.00" 0.00" 0.00" 68.7° 23.1° 44.2° 52.2% 1.7 MPH 226.3w/m2
3/24/2012 0.13" 0.00" 0.00" 0.00" 64.1° 29.2° 47.9° 45.9% 2.5 MPH 200.2w/m2
3/25/2012 0.17" 0.00" 0.00" 0.00" 67.4° 29.2° 49.4° 41.1% 5.8 MPH 220.5w/m2
3/26/2012 0.09" 0.00" 0.01" -0.01" 53.3° 25.9° 38.9° 53.1% 10.4 MPH 174.9w/m2
3/27/2012 0.11" 0.00" 0.00" 0.00" 56.7° 20.3° 38.2° 55.0% 2.1 MPH 215.1w/m2
3/28/2012 0.15" 0.00" 0.00" 0.00" 61.9° 21.0° 41.1° 56.3% 5.8 MPH 210.0w/m2
3/29/2012 0.15" 0.00" 0.00" 0.00" 59.9° 27.3° 42.7° 55.8% 5.2 MPH 232.3w/m2
3/30/2012 0.17" 0.00" 0.00" 0.00" 66.3° 25.9° 44.8° 54.5% 5.2 MPH 248.2w/m2
3/31/2012 0.20" 0.00" 0.00" 0.00" 72.2° 27.7° 50.5° 46.3% 4.3 MPH 278.5w/m2
Totals: 3.61" 0.00" 0.29" -0.23" 72.2° 7.6° 37.8° 53.2% 4.9 MPH 212.8w/m2